createdAt,value
2018-12-02T00:00:09.985Z,10.00
2018-12-02T00:02:37.451Z,10.00
2018-12-02T00:05:07.403Z,10.00
2018-12-02T00:07:34.893Z,10.10
2018-12-02T00:10:03.552Z,10.10
2018-12-02T00:12:31.161Z,10.10
2018-12-02T00:14:58.684Z,10.10
2018-12-02T00:17:26.135Z,10.10
2018-12-02T00:19:53.583Z,10.10
2018-12-02T00:22:20.995Z,10.10
2018-12-02T00:24:48.545Z,10.10
2018-12-02T00:27:16.325Z,10.10
2018-12-02T00:29:43.983Z,10.10
2018-12-02T00:32:11.537Z,10.20
2018-12-02T00:34:39.055Z,10.10
2018-12-02T00:37:06.551Z,10.20
2018-12-02T00:39:34.007Z,10.20
2018-12-02T00:42:02.084Z,10.20
2018-12-02T00:44:29.825Z,10.20
2018-12-02T00:46:57.280Z,10.20
2018-12-02T00:49:24.871Z,10.30
2018-12-02T00:51:52.327Z,10.30
2018-12-02T00:54:19.784Z,10.30
2018-12-02T00:56:47.241Z,10.30
2018-12-02T00:59:14.723Z,10.30
2018-12-02T01:01:42.191Z,10.30
2018-12-02T01:04:09.726Z,10.30
2018-12-02T01:06:37.262Z,10.30
2018-12-02T01:09:06.045Z,10.30
2018-12-02T01:11:33.583Z,10.30
2018-12-02T01:14:01.094Z,10.30
2018-12-02T01:16:28.755Z,10.20
2018-12-02T01:18:56.480Z,10.20
2018-12-02T01:21:24.060Z,10.20
2018-12-02T01:23:51.470Z,10.20
2018-12-02T01:26:18.940Z,10.20
2018-12-02T01:28:46.610Z,10.20
2018-12-02T01:31:14.073Z,10.20
2018-12-02T01:33:41.779Z,10.20
2018-12-02T01:36:09.279Z,10.20
2018-12-02T01:38:36.742Z,10.30
2018-12-02T01:41:05.165Z,10.30
2018-12-02T01:43:32.635Z,10.30
2018-12-02T01:46:00.149Z,10.20
2018-12-02T01:48:27.772Z,10.20
2018-12-02T01:50:55.247Z,10.10
2018-12-02T01:53:22.734Z,10.10
2018-12-02T01:55:50.259Z,10.10
2018-12-02T01:58:17.771Z,10.10
2018-12-02T02:00:45.217Z,10.00
2018-12-02T02:03:12.690Z,10.00
2018-12-02T02:05:40.171Z,10.00
2018-12-02T02:08:07.625Z,10.00
2018-12-02T02:10:35.137Z,9.90
2018-12-02T02:13:02.594Z,9.90
2018-12-02T02:15:30.078Z,9.90
2018-12-02T02:17:57.562Z,9.90
2018-12-02T02:20:25.270Z,9.90
2018-12-02T02:22:52.996Z,9.90
2018-12-02T02:25:21.543Z,9.90
2018-12-02T02:27:54.291Z,9.90
2018-12-02T02:30:22.632Z,9.90
2018-12-02T02:32:50.122Z,9.90
2018-12-02T02:35:18.880Z,10.00
2018-12-02T02:37:46.445Z,10.10
2018-12-02T02:40:18.951Z,10.10
2018-12-02T02:42:46.440Z,10.10
2018-12-02T02:45:14.392Z,10.10
2018-12-02T02:47:41.877Z,10.10
2018-12-02T02:50:14.445Z,10.00
2018-12-02T02:52:44.009Z,9.90
2018-12-02T02:55:11.474Z,9.80
2018-12-02T02:57:39.181Z,9.70
2018-12-02T03:00:11.320Z,9.60
2018-12-02T03:02:38.963Z,9.40
2018-12-02T03:05:07.604Z,9.40
2018-12-02T03:07:35.045Z,9.30
2018-12-02T03:10:03.245Z,9.20
2018-12-02T03:12:30.716Z,9.20
2018-12-02T03:14:58.241Z,9.10
2018-12-02T03:17:25.720Z,9.10
2018-12-02T03:19:53.150Z,9.10
2018-12-02T03:22:20.636Z,9.10
2018-12-02T03:24:48.154Z,9.00
2018-12-02T03:27:15.628Z,9.00
2018-12-02T03:29:43.128Z,9.00
2018-12-02T03:32:10.589Z,9.00
2018-12-02T03:34:38.411Z,8.90
2018-12-02T03:37:05.953Z,8.90
2018-12-02T03:39:33.442Z,8.90
2018-12-02T03:42:00.969Z,8.90
2018-12-02T03:44:28.427Z,8.90
2018-12-02T03:46:55.919Z,8.90
2018-12-02T03:49:23.393Z,8.90
2018-12-02T03:51:50.843Z,8.90
2018-12-02T03:54:18.392Z,9.00
2018-12-02T03:56:46.839Z,9.00
2018-12-02T03:59:14.997Z,9.00
2018-12-02T04:01:42.854Z,9.00
2018-12-02T04:04:10.310Z,9.00
2018-12-02T04:06:37.875Z,8.90
2018-12-02T04:09:08.158Z,8.90
2018-12-02T04:11:36.446Z,8.90
2018-12-02T04:14:04.649Z,8.90
2018-12-02T04:16:32.148Z,8.90
2018-12-02T04:18:59.867Z,8.90
2018-12-02T04:21:27.336Z,8.90
2018-12-02T04:23:54.846Z,8.80
2018-12-02T04:26:22.319Z,8.80
2018-12-02T04:28:49.751Z,8.80
2018-12-02T04:31:17.313Z,8.70
2018-12-02T04:33:44.773Z,8.70
2018-12-02T04:36:12.361Z,8.70
2018-12-02T04:38:39.938Z,8.70
2018-12-02T04:41:07.573Z,8.60
2018-12-02T04:43:35.091Z,8.60
2018-12-02T04:46:02.631Z,8.60
2018-12-02T04:48:30.171Z,8.60
2018-12-02T04:50:57.659Z,8.60
2018-12-02T04:53:25.099Z,8.60
2018-12-02T04:55:52.572Z,8.50
2018-12-02T04:58:20.035Z,8.50
2018-12-02T05:00:47.544Z,8.60
2018-12-02T05:03:15.121Z,8.50
2018-12-02T05:05:42.627Z,8.50
2018-12-02T05:08:10.199Z,8.50
2018-12-02T05:10:37.732Z,8.60
2018-12-02T05:13:05.504Z,8.60
2018-12-02T05:15:32.928Z,8.60
2018-12-02T05:18:00.631Z,8.60
2018-12-02T05:20:28.073Z,8.60
2018-12-02T05:22:55.537Z,8.60
2018-12-02T05:25:23.118Z,8.60
2018-12-02T05:27:50.716Z,8.60
2018-12-02T05:30:19.125Z,8.60
2018-12-02T05:32:47.925Z,8.60
2018-12-02T05:35:15.460Z,8.70
2018-12-02T05:37:43.012Z,8.70
2018-12-02T05:40:20.168Z,8.60
2018-12-02T05:42:47.841Z,8.60
2018-12-02T05:45:16.433Z,8.70
2018-12-02T05:47:44.232Z,8.70
2018-12-02T05:50:14.761Z,8.70
2018-12-02T05:52:42.690Z,8.70
2018-12-02T05:55:11.915Z,8.70
2018-12-02T05:57:39.512Z,8.70
2018-12-02T06:00:13.501Z,8.70
2018-12-02T06:02:40.959Z,8.70
2018-12-02T06:05:09.767Z,8.70
2018-12-02T06:07:37.289Z,8.70
2018-12-02T06:10:10.363Z,8.70
2018-12-02T06:12:37.911Z,8.70
2018-12-02T06:15:08.233Z,8.80
2018-12-02T06:17:35.854Z,8.70
2018-12-02T06:20:06.703Z,8.80
2018-12-02T06:22:34.305Z,8.80
2018-12-02T06:25:01.789Z,8.80
2018-12-02T06:27:29.266Z,8.80
2018-12-02T06:29:56.900Z,8.90
2018-12-02T06:32:24.416Z,8.90
2018-12-02T06:34:51.950Z,8.90
2018-12-02T06:37:19.529Z,8.90
2018-12-02T06:39:47.150Z,8.90
2018-12-02T06:42:14.637Z,9.00
2018-12-02T06:44:49.162Z,9.00
2018-12-02T06:47:16.620Z,9.00
2018-12-02T06:49:44.089Z,9.00
2018-12-02T06:52:11.527Z,9.00
2018-12-02T06:54:43.817Z,9.10
2018-12-02T06:57:23.720Z,9.10
2018-12-02T07:00:02.748Z,9.00
2018-12-02T07:02:44.349Z,9.10
2018-12-02T07:05:16.632Z,9.10
2018-12-02T07:07:44.084Z,9.20
2018-12-02T07:10:11.811Z,9.20
2018-12-02T07:12:39.365Z,9.20
2018-12-02T07:15:06.954Z,9.20
2018-12-02T07:17:36.980Z,9.20
2018-12-02T07:20:10.115Z,9.30
2018-12-02T07:22:40.855Z,9.30
2018-12-02T07:25:12.175Z,9.30
2018-12-02T07:27:39.675Z,9.30
2018-12-02T07:30:09.311Z,9.30
2018-12-02T07:32:36.844Z,9.30
2018-12-02T07:35:05.904Z,9.30
2018-12-02T07:37:33.380Z,9.40
2018-12-02T07:40:26.456Z,9.40
2018-12-02T07:43:01.353Z,9.40
2018-12-02T07:45:28.849Z,9.40
2018-12-02T07:47:56.384Z,9.40
2018-12-02T07:50:23.840Z,9.50
2018-12-02T07:52:51.488Z,9.50
2018-12-02T07:55:19.127Z,9.50
2018-12-02T07:57:46.627Z,9.50
2018-12-02T08:00:14.704Z,9.60
2018-12-02T08:02:42.212Z,9.60
2018-12-02T08:05:11.043Z,9.70
2018-12-02T08:07:38.663Z,9.60
2018-12-02T08:10:10.004Z,9.70
2018-12-02T08:12:37.516Z,9.70
2018-12-02T08:15:07.635Z,9.70
2018-12-02T08:17:35.195Z,9.80
2018-12-02T08:20:02.995Z,9.80
2018-12-02T08:22:31.025Z,9.80
2018-12-02T08:24:58.896Z,9.90
2018-12-02T08:27:26.519Z,9.90
2018-12-02T08:29:53.989Z,9.90
2018-12-02T08:32:21.559Z,10.00
2018-12-02T08:34:49.207Z,10.00
2018-12-02T08:37:16.800Z,10.00
2018-12-02T08:39:44.440Z,10.10
2018-12-02T08:42:11.976Z,10.10
2018-12-02T08:44:39.588Z,10.10
2018-12-02T08:47:07.042Z,10.20
2018-12-02T08:49:34.573Z,10.20
2018-12-02T08:52:02.151Z,10.20
2018-12-02T08:54:29.629Z,10.30
2018-12-02T08:56:57.092Z,10.30
2018-12-02T08:59:24.665Z,10.30
2018-12-02T09:01:52.167Z,10.40
2018-12-02T09:04:19.728Z,10.40
2018-12-02T09:06:47.398Z,10.50
2018-12-02T09:09:14.931Z,10.50
2018-12-02T09:11:49.117Z,10.60
2018-12-02T09:14:16.618Z,10.60
2018-12-02T09:16:44.134Z,10.60
2018-12-02T09:19:11.886Z,10.70
2018-12-02T09:21:39.395Z,10.70
2018-12-02T09:24:06.921Z,10.70
2018-12-02T09:26:34.442Z,10.80
2018-12-02T09:29:01.970Z,10.80
2018-12-02T09:31:29.506Z,10.90
2018-12-02T09:33:56.971Z,10.90
2018-12-02T09:36:24.472Z,11.00
2018-12-02T09:38:51.931Z,11.00
2018-12-02T09:41:19.457Z,11.10
2018-12-02T09:43:47.079Z,11.20
2018-12-02T09:46:14.621Z,11.20
2018-12-02T09:48:42.131Z,11.30
2018-12-02T09:51:09.609Z,11.30
2018-12-02T09:53:37.250Z,11.40
2018-12-02T09:56:05.232Z,11.40
2018-12-02T09:58:32.684Z,11.40
2018-12-02T10:01:00.213Z,11.50
2018-12-02T10:03:27.855Z,11.50
2018-12-02T10:05:55.305Z,11.60
2018-12-02T10:08:22.890Z,11.60
2018-12-02T10:10:50.424Z,11.70
2018-12-02T10:13:19.382Z,11.70
2018-12-02T10:15:46.928Z,11.80
2018-12-02T10:18:14.467Z,11.80
2018-12-02T10:20:42.034Z,11.90
2018-12-02T10:23:09.845Z,11.90
2018-12-02T10:25:37.391Z,11.90
2018-12-02T10:28:05.675Z,12.00
2018-12-02T10:30:33.379Z,12.00
2018-12-02T10:33:00.877Z,12.10
2018-12-02T10:35:28.941Z,12.20
2018-12-02T10:37:56.960Z,12.20
2018-12-02T10:40:25.972Z,12.20
2018-12-02T10:42:53.510Z,12.30
2018-12-02T10:45:21.793Z,12.30
2018-12-02T10:47:50.267Z,12.40
2018-12-02T10:50:26.770Z,12.40
2018-12-02T10:52:55.673Z,12.40
2018-12-02T10:55:25.128Z,12.40
2018-12-02T10:57:52.638Z,12.50
2018-12-02T11:00:26.188Z,12.50
2018-12-02T11:02:53.718Z,12.60
2018-12-02T11:05:21.176Z,12.60
2018-12-02T11:07:48.652Z,12.60
2018-12-02T11:10:16.233Z,12.70
2018-12-02T11:12:43.914Z,12.70
2018-12-02T11:15:13.532Z,12.80
2018-12-02T11:17:41.234Z,12.80
2018-12-02T11:20:12.953Z,12.80
2018-12-02T11:22:40.588Z,12.80
2018-12-02T11:25:09.718Z,12.80
2018-12-02T11:27:37.242Z,12.80
2018-12-02T11:30:09.645Z,12.90
2018-12-02T11:32:37.166Z,13.00
2018-12-02T11:35:06.032Z,13.10
2018-12-02T11:37:33.560Z,13.10
2018-12-02T11:40:01.048Z,13.30
2018-12-02T11:42:28.548Z,13.40
2018-12-02T11:44:56.091Z,13.40
2018-12-02T11:47:23.562Z,13.40
2018-12-02T11:49:51.020Z,13.50
2018-12-02T11:52:18.530Z,13.60
2018-12-02T11:54:46.215Z,13.60
2018-12-02T11:57:13.749Z,13.70
2018-12-02T11:59:41.269Z,13.80
2018-12-02T12:02:08.763Z,13.90
2018-12-02T12:04:36.244Z,14.00
2018-12-02T12:07:03.882Z,14.10
2018-12-02T12:09:31.389Z,14.20
2018-12-02T12:11:58.931Z,14.20
2018-12-02T12:14:26.401Z,14.20
2018-12-02T12:16:53.945Z,14.30
2018-12-02T12:19:21.480Z,14.30
2018-12-02T12:21:48.987Z,14.30
2018-12-02T12:24:16.512Z,14.40
2018-12-02T12:26:44.104Z,14.50
2018-12-02T12:29:11.666Z,14.60
2018-12-02T12:31:39.236Z,14.50
2018-12-02T12:34:06.815Z,14.60
2018-12-02T12:36:34.288Z,14.70
2018-12-02T12:39:01.968Z,14.70
2018-12-02T12:41:29.417Z,14.80
2018-12-02T12:43:56.954Z,14.80
2018-12-02T12:46:24.582Z,14.90
2018-12-02T12:48:52.168Z,14.90
2018-12-02T12:51:19.706Z,14.90
2018-12-02T12:53:47.212Z,14.90
2018-12-02T12:56:14.782Z,14.90
2018-12-02T12:58:42.348Z,14.90
2018-12-02T13:01:11.148Z,14.90
2018-12-02T13:03:38.704Z,14.90
2018-12-02T13:06:06.270Z,15.10
2018-12-02T13:08:33.783Z,15.30
2018-12-02T13:13:38.459Z,15.50
2018-12-02T13:16:06.023Z,15.50
2018-12-02T13:18:33.510Z,15.40
2018-12-02T13:21:01.107Z,15.40
2018-12-02T13:23:28.557Z,15.30
2018-12-02T13:25:56.052Z,15.20
2018-12-02T13:28:23.530Z,15.20
2018-12-02T13:30:51.070Z,15.10
2018-12-02T13:33:18.555Z,15.10
2018-12-02T13:35:46.090Z,15.10
2018-12-02T13:38:13.626Z,15.00
2018-12-02T13:40:42.142Z,15.00
2018-12-02T13:43:19.118Z,15.00
2018-12-02T13:45:47.364Z,15.00
2018-12-02T13:48:14.956Z,14.90
2018-12-02T13:50:42.468Z,14.90
2018-12-02T13:53:10.004Z,14.90
2018-12-02T13:55:37.625Z,14.90
2018-12-02T13:58:05.837Z,14.90
2018-12-02T14:00:33.596Z,14.80
2018-12-02T14:03:05.528Z,14.80
2018-12-02T14:05:33.129Z,14.80
2018-12-02T14:08:00.727Z,14.90
2018-12-02T14:10:28.179Z,14.90
2018-12-02T14:13:05.177Z,14.80
2018-12-02T14:15:42.529Z,14.80
2018-12-02T14:18:18.967Z,14.80
2018-12-02T14:20:46.499Z,14.80
2018-12-02T14:23:14.043Z,14.70
2018-12-02T14:25:41.668Z,14.70
2018-12-02T14:28:09.597Z,14.70
2018-12-02T14:30:37.141Z,14.70
2018-12-02T14:33:06.279Z,14.70
2018-12-02T14:35:32.905Z,14.70
2018-12-02T14:38:00.403Z,14.60
2018-12-02T14:40:28.204Z,14.50
2018-12-02T14:42:55.721Z,14.60
2018-12-02T14:45:23.259Z,14.60
2018-12-02T14:47:50.749Z,14.60
2018-12-02T14:50:18.266Z,14.50
2018-12-02T14:52:47.140Z,14.50
2018-12-02T14:55:16.242Z,14.50
2018-12-02T14:57:43.837Z,14.50
2018-12-02T15:00:13.461Z,14.40
2018-12-02T15:02:41.019Z,14.40
2018-12-02T15:05:09.673Z,14.30
2018-12-02T15:07:37.288Z,14.30
2018-12-02T15:10:09.484Z,14.30
2018-12-02T15:12:37.065Z,14.30
2018-12-02T15:15:07.270Z,14.20
2018-12-02T15:17:34.802Z,14.20
2018-12-02T15:20:02.910Z,14.20
2018-12-02T15:22:30.472Z,14.20
2018-12-02T15:24:58.036Z,14.20
2018-12-02T15:27:25.514Z,14.20
2018-12-02T15:29:53.004Z,14.20
2018-12-02T15:32:20.545Z,14.20
2018-12-02T15:34:48.035Z,14.20
2018-12-02T15:37:15.603Z,14.20
2018-12-02T15:39:43.320Z,14.20
2018-12-02T15:42:10.836Z,14.20
2018-12-02T15:44:38.352Z,14.20
2018-12-02T15:47:05.935Z,14.20
2018-12-02T15:49:33.471Z,14.20
2018-12-02T15:52:01.013Z,14.20
2018-12-02T15:54:28.637Z,14.10
2018-12-02T15:56:56.213Z,14.00
2018-12-02T15:59:23.729Z,14.00
2018-12-02T16:01:51.301Z,14.00
2018-12-02T16:04:18.866Z,13.90
2018-12-02T16:06:46.384Z,13.90
2018-12-02T16:09:15.026Z,13.90
2018-12-02T16:11:41.349Z,14.00
2018-12-02T16:14:08.818Z,14.00
2018-12-02T16:16:36.359Z,14.00
2018-12-02T16:19:04.263Z,14.00
2018-12-02T16:21:31.726Z,14.00
2018-12-02T16:23:59.270Z,14.00
2018-12-02T16:26:26.908Z,14.00
2018-12-02T16:28:55.694Z,14.00
2018-12-02T16:31:21.933Z,14.00
2018-12-02T16:33:49.420Z,14.00
2018-12-02T16:36:16.921Z,14.00
2018-12-02T16:38:44.415Z,14.00
2018-12-02T16:41:12.089Z,14.00
2018-12-02T16:43:39.737Z,14.00
2018-12-02T16:46:07.253Z,14.00
2018-12-02T16:48:34.951Z,14.00
2018-12-02T16:51:02.715Z,14.00
2018-12-02T16:53:30.520Z,14.00
2018-12-02T16:56:01.367Z,14.00
2018-12-02T16:59:11.849Z,14.10
2018-12-02T17:01:40.569Z,14.10
2018-12-02T17:04:08.075Z,14.20
2018-12-02T17:06:35.637Z,14.10
2018-12-02T17:09:04.408Z,14.10
2018-12-02T17:11:31.928Z,14.10
2018-12-02T17:13:59.417Z,14.20
2018-12-02T17:16:26.901Z,14.20
2018-12-02T17:18:54.413Z,14.20
2018-12-02T17:21:21.885Z,14.20
2018-12-02T17:23:49.419Z,14.20
2018-12-02T17:26:16.871Z,14.20
2018-12-02T17:28:44.385Z,14.30
2018-12-02T17:31:16.157Z,14.30
2018-12-02T17:33:43.623Z,14.20
2018-12-02T17:36:11.205Z,14.30
2018-12-02T17:38:38.754Z,14.30
2018-12-02T17:41:08.555Z,14.30
2018-12-02T17:43:36.089Z,14.30
2018-12-02T17:46:04.389Z,14.30
2018-12-02T17:48:32.128Z,14.30
2018-12-02T17:50:59.849Z,14.30
2018-12-02T17:53:27.374Z,14.30
2018-12-02T17:55:55.064Z,14.30
2018-12-02T17:58:22.586Z,14.30
2018-12-02T18:00:50.155Z,14.30
2018-12-02T18:03:21.330Z,14.30
2018-12-02T18:05:48.940Z,14.30
2018-12-02T18:08:16.708Z,14.30
2018-12-02T18:10:44.233Z,14.30
2018-12-02T18:13:11.758Z,14.20
2018-12-02T18:15:39.458Z,14.20
2018-12-02T18:18:07.636Z,14.20
2018-12-02T18:20:35.150Z,14.10
2018-12-02T18:23:02.882Z,14.20
2018-12-02T18:25:30.461Z,14.10
2018-12-02T18:27:58.100Z,14.10
2018-12-02T18:30:26.521Z,14.10
2018-12-02T18:32:58.304Z,14.10
2018-12-02T18:35:44.613Z,14.00
2018-12-02T18:38:15.378Z,14.00
2018-12-02T18:40:53.699Z,13.90
2018-12-02T18:43:21.984Z,13.90
2018-12-02T18:45:49.505Z,13.90
2018-12-02T18:48:16.997Z,13.90
2018-12-02T18:50:44.514Z,13.80
2018-12-02T18:53:12.083Z,13.80
2018-12-02T18:55:39.536Z,13.80
2018-12-02T18:58:07.005Z,13.80
2018-12-02T19:00:40.058Z,13.80
2018-12-02T19:03:07.661Z,13.80
2018-12-02T19:05:35.235Z,13.80
2018-12-02T19:08:02.906Z,13.80
2018-12-02T19:10:30.396Z,13.80
2018-12-02T19:12:57.958Z,13.80
2018-12-02T19:15:25.514Z,13.80
2018-12-02T19:17:53.011Z,13.80
2018-12-02T19:20:25.057Z,13.80
2018-12-02T19:22:54.093Z,13.80
2018-12-02T19:25:23.696Z,13.70
2018-12-02T19:27:51.200Z,13.70
2018-12-02T19:30:18.804Z,13.70
2018-12-02T19:32:46.565Z,13.70
2018-12-02T19:35:20.044Z,13.70
2018-12-02T19:37:49.340Z,13.70
2018-12-02T19:40:17.121Z,13.70
2018-12-02T19:42:44.760Z,13.70
2018-12-02T19:45:19.543Z,13.70
2018-12-02T19:47:47.084Z,13.70
2018-12-02T19:50:18.389Z,13.70
2018-12-02T19:52:46.185Z,13.70
2018-12-02T19:55:13.715Z,13.70
2018-12-02T19:57:43.539Z,13.70
2018-12-02T20:00:18.731Z,13.70
2018-12-02T20:02:46.508Z,13.70
2018-12-02T20:05:14.040Z,13.60
2018-12-02T20:07:42.170Z,13.60
2018-12-02T20:10:14.438Z,13.60
2018-12-02T20:12:42.386Z,13.60
2018-12-02T20:15:11.685Z,13.60
2018-12-02T20:17:39.372Z,13.60
2018-12-02T20:20:16.334Z,13.60
2018-12-02T20:22:43.930Z,13.60
2018-12-02T20:25:11.489Z,13.60
2018-12-02T20:27:39.060Z,13.60
2018-12-02T20:30:10.763Z,13.60
2018-12-02T20:32:38.275Z,13.60
2018-12-02T20:35:07.916Z,13.60
2018-12-02T20:37:35.460Z,13.70
2018-12-02T20:40:04.759Z,13.70
2018-12-02T20:42:32.215Z,13.70
2018-12-02T20:44:59.697Z,13.70
2018-12-02T20:47:27.277Z,13.70
2018-12-02T20:49:54.778Z,13.70
2018-12-02T20:52:22.363Z,13.70
2018-12-02T20:54:49.951Z,13.70
2018-12-02T20:57:17.469Z,13.70
2018-12-02T20:59:45.205Z,13.70
2018-12-02T21:02:12.860Z,13.70
2018-12-02T21:04:40.337Z,13.70
2018-12-02T21:07:07.835Z,13.70
2018-12-02T21:09:35.677Z,13.70
2018-12-02T21:12:03.392Z,13.70
2018-12-02T21:14:31.084Z,13.70
2018-12-02T21:16:58.547Z,13.70
2018-12-02T21:19:26.019Z,13.70
2018-12-02T21:21:53.682Z,13.70
2018-12-02T21:24:21.226Z,13.60
2018-12-02T21:26:48.723Z,13.60
2018-12-02T21:29:16.268Z,13.60
2018-12-02T21:31:44.008Z,13.60
2018-12-02T21:34:11.493Z,13.70
2018-12-02T21:37:41.920Z,13.70
2018-12-02T21:40:10.837Z,13.70
2018-12-02T21:42:38.495Z,13.70
2018-12-02T21:45:07.769Z,13.70
2018-12-02T21:47:35.338Z,13.70
2018-12-02T21:50:04.520Z,13.70
2018-12-02T21:52:32.049Z,13.70
2018-12-02T21:54:59.643Z,13.70
2018-12-02T21:57:27.145Z,13.70
2018-12-02T21:59:54.660Z,13.70
2018-12-02T22:02:22.185Z,13.70
2018-12-02T22:04:49.741Z,13.70
2018-12-02T22:07:17.198Z,13.70
2018-12-02T22:09:44.918Z,13.60
2018-12-02T22:12:12.496Z,13.60
2018-12-02T22:14:40.050Z,13.60
2018-12-02T22:17:07.563Z,13.50
2018-12-02T22:19:35.078Z,13.50
2018-12-02T22:22:03.088Z,13.40
2018-12-02T22:24:30.629Z,13.30
2018-12-02T22:26:58.208Z,13.20
2018-12-02T22:29:25.689Z,13.20
2018-12-02T22:31:53.203Z,13.10
2018-12-02T22:34:20.763Z,13.10
2018-12-02T22:36:48.269Z,13.10
2018-12-02T22:39:15.800Z,13.10
2018-12-02T22:41:43.393Z,13.10
2018-12-02T22:44:11.059Z,13.00
2018-12-02T22:46:38.542Z,13.00
2018-12-02T22:49:06.072Z,13.00
2018-12-02T22:51:33.555Z,13.00
2018-12-02T22:54:01.170Z,12.90
2018-12-02T22:56:28.833Z,12.90
2018-12-02T22:58:56.348Z,12.90
2018-12-02T23:01:29.506Z,12.90
2018-12-02T23:03:56.960Z,12.90
2018-12-02T23:06:24.619Z,12.90
2018-12-02T23:08:52.248Z,12.90
2018-12-02T23:11:19.828Z,12.90
2018-12-02T23:13:47.510Z,12.90
2018-12-02T23:16:15.072Z,12.80
2018-12-02T23:18:42.631Z,12.80
2018-12-02T23:21:10.535Z,12.80
2018-12-02T23:23:38.320Z,12.80
2018-12-02T23:26:06.114Z,12.80
2018-12-02T23:28:33.671Z,12.80
2018-12-02T23:31:01.217Z,12.80
2018-12-02T23:33:28.807Z,12.80
2018-12-02T23:35:56.494Z,12.90
2018-12-02T23:38:23.995Z,12.80
2018-12-02T23:40:51.935Z,12.80
2018-12-02T23:43:19.461Z,12.80
2018-12-02T23:45:47.119Z,12.70
2018-12-02T23:48:14.794Z,12.70
2018-12-02T23:50:42.347Z,12.70
2018-12-02T23:53:09.849Z,12.60
2018-12-02T23:55:37.417Z,12.70
2018-12-02T23:58:05.706Z,12.60
